createdAt,value
2024-05-09T00:00:46.343Z,1016.87
2024-05-09T00:01:45.726Z,1016.87
2024-05-09T00:02:45.629Z,1016.87
2024-05-09T00:04:06.612Z,1016.88
2024-05-09T00:04:45.725Z,1016.85
2024-05-09T00:05:45.656Z,1016.85
2024-05-09T00:06:45.509Z,1016.86
2024-05-09T00:07:45.573Z,1016.87
2024-05-09T00:08:45.511Z,1016.88
2024-05-09T00:10:09.255Z,1016.88
2024-05-09T00:10:45.543Z,1016.90
2024-05-09T00:11:45.535Z,1016.87
2024-05-09T00:12:45.392Z,1016.86
2024-05-09T00:13:45.437Z,1016.86
2024-05-09T00:14:45.367Z,1016.90
2024-05-09T00:16:06.311Z,1016.91
2024-05-09T00:16:45.336Z,1016.88
2024-05-09T00:17:46.362Z,1016.90
2024-05-09T00:18:45.308Z,1016.90
2024-05-09T00:19:45.266Z,1016.89
2024-05-09T00:20:45.221Z,1016.86
2024-05-09T00:22:06.202Z,1016.86
2024-05-09T00:22:45.210Z,1016.79
2024-05-09T00:23:45.212Z,1016.82
2024-05-09T00:24:45.109Z,1016.81
2024-05-09T00:25:45.266Z,1016.84
2024-05-09T00:26:45.072Z,1016.78
2024-05-09T00:28:06.050Z,1016.81
2024-05-09T00:28:45.073Z,1016.76
2024-05-09T00:29:44.993Z,1016.76
2024-05-09T00:30:44.962Z,1016.73
2024-05-09T00:31:45.146Z,1016.75
2024-05-09T00:32:44.979Z,1016.74
2024-05-09T00:34:06.038Z,1016.72
2024-05-09T00:34:44.918Z,1016.68
2024-05-09T00:35:44.822Z,1016.68
2024-05-09T00:36:44.863Z,1016.65
2024-05-09T00:37:44.810Z,1016.69
2024-05-09T00:38:44.792Z,1016.66
2024-05-09T00:40:07.409Z,1016.69
2024-05-09T00:40:44.852Z,1016.65
2024-05-09T00:41:44.756Z,1016.70
2024-05-09T00:42:44.671Z,1016.65
2024-05-09T00:43:44.731Z,1016.65
2024-05-09T00:44:44.627Z,1016.61
2024-05-09T00:46:05.611Z,1016.62
2024-05-09T00:46:44.658Z,1016.64
2024-05-09T00:47:44.778Z,1016.60
2024-05-09T00:48:44.692Z,1016.58
2024-05-09T00:49:44.717Z,1016.59
2024-05-09T00:50:44.608Z,1016.58
2024-05-09T00:52:05.459Z,1016.60
2024-05-09T00:52:44.476Z,1016.58
2024-05-09T00:53:44.593Z,1016.56
2024-05-09T00:54:44.386Z,1016.57
2024-05-09T00:55:44.531Z,1016.52
2024-05-09T00:56:44.353Z,1016.49
2024-05-09T00:58:05.363Z,1016.51
2024-05-09T00:58:44.406Z,1016.51
2024-05-09T00:59:44.274Z,1016.49
2024-05-09T01:00:44.444Z,1016.47
2024-05-09T01:01:44.480Z,1016.46
2024-05-09T01:02:44.279Z,1016.47
2024-05-09T01:04:05.278Z,1016.45
2024-05-09T01:04:44.304Z,1016.42
2024-05-09T01:05:44.271Z,1016.42
2024-05-09T01:06:44.104Z,1016.37
2024-05-09T01:07:44.155Z,1016.40
2024-05-09T01:08:44.116Z,1016.35
2024-05-09T01:10:45.997Z,1016.34
2024-05-09T01:11:44.098Z,1016.34
2024-05-09T01:12:44.010Z,1016.35
2024-05-09T01:13:44.001Z,1016.34
2024-05-09T01:14:43.930Z,1016.33
2024-05-09T01:16:04.927Z,1016.35
2024-05-09T01:16:43.950Z,1016.35
2024-05-09T01:17:44.097Z,1016.33
2024-05-09T01:18:43.983Z,1016.33
2024-05-09T01:19:43.899Z,1016.36
2024-05-09T01:20:45.278Z,1016.35
2024-05-09T01:22:04.787Z,1016.36
2024-05-09T01:22:43.777Z,1016.33
2024-05-09T01:23:43.776Z,1016.32
2024-05-09T01:24:43.717Z,1016.33
2024-05-09T01:25:43.809Z,1016.34
2024-05-09T01:26:43.633Z,1016.37
2024-05-09T01:28:04.661Z,1016.33
2024-05-09T01:28:43.611Z,1016.34
2024-05-09T01:29:43.590Z,1016.37
2024-05-09T01:30:43.549Z,1016.35
2024-05-09T01:31:43.631Z,1016.36
2024-05-09T01:32:44.398Z,1016.33
2024-05-09T01:34:04.523Z,1016.32
2024-05-09T01:34:43.536Z,1016.35
2024-05-09T01:35:43.559Z,1016.34
2024-05-09T01:36:43.429Z,1016.36
2024-05-09T01:37:43.431Z,1016.33
2024-05-09T01:38:43.393Z,1016.35
2024-05-09T01:40:07.346Z,1016.35
2024-05-09T01:40:43.439Z,1016.35
2024-05-09T01:41:43.318Z,1016.31
2024-05-09T01:42:43.274Z,1016.29
2024-05-09T01:43:43.314Z,1016.32
2024-05-09T01:44:43.249Z,1016.31
2024-05-09T01:46:04.221Z,1016.25
2024-05-09T01:46:43.265Z,1016.27
2024-05-09T01:47:43.426Z,1016.22
2024-05-09T01:48:43.278Z,1016.23
2024-05-09T01:49:43.389Z,1016.19
2024-05-09T01:50:43.669Z,1016.19
2024-05-09T01:52:04.089Z,1016.19
2024-05-09T01:52:43.111Z,1016.17
2024-05-09T01:53:43.086Z,1016.14
2024-05-09T01:54:42.997Z,1016.17
2024-05-09T01:55:43.248Z,1016.17
2024-05-09T01:56:42.965Z,1016.15
2024-05-09T01:58:03.947Z,1016.18
2024-05-09T01:58:42.928Z,1016.16
2024-05-09T01:59:42.885Z,1016.15
2024-05-09T02:00:43.688Z,1016.13
2024-05-09T02:01:56.172Z,1016.12
2024-05-09T02:02:42.934Z,1016.11
2024-05-09T02:04:04.063Z,1016.10
2024-05-09T02:04:42.875Z,1016.09
2024-05-09T02:05:42.971Z,1016.09
2024-05-09T02:06:42.761Z,1016.05
2024-05-09T02:07:42.786Z,1016.04
2024-05-09T02:08:42.733Z,1016.04
2024-05-09T02:10:06.460Z,1016.03
2024-05-09T02:10:42.674Z,1016.04
2024-05-09T02:11:42.646Z,1016.01
2024-05-09T02:12:42.607Z,1015.96
2024-05-09T02:13:42.641Z,1016.04
2024-05-09T02:14:42.571Z,1015.98
2024-05-09T02:16:03.504Z,1016.01
2024-05-09T02:16:42.746Z,1016.00
2024-05-09T02:17:44.541Z,1016.02
2024-05-09T02:18:42.546Z,1015.99
2024-05-09T02:19:42.462Z,1016.00
2024-05-09T02:20:43.361Z,1016.01
2024-05-09T02:22:03.396Z,1016.04
2024-05-09T02:22:42.378Z,1016.02
2024-05-09T02:23:42.453Z,1016.03
2024-05-09T02:24:43.249Z,1016.02
2024-05-09T02:25:42.327Z,1016.00
2024-05-09T02:26:42.278Z,1015.97
2024-05-09T02:28:03.249Z,1015.98
2024-05-09T02:28:42.261Z,1015.96
2024-05-09T02:29:42.233Z,1015.96
2024-05-09T02:30:42.716Z,1015.99
2024-05-09T02:31:42.775Z,1015.95
2024-05-09T02:32:42.262Z,1015.95
2024-05-09T02:34:03.408Z,1015.95
2024-05-09T02:34:42.099Z,1015.94
2024-05-09T02:35:42.349Z,1015.94
2024-05-09T02:36:42.044Z,1015.94
2024-05-09T02:37:42.044Z,1015.92
2024-05-09T02:38:42.115Z,1015.93
2024-05-09T02:40:03.416Z,1015.93
2024-05-09T02:40:41.964Z,1015.88
2024-05-09T02:41:41.927Z,1015.93
2024-05-09T02:42:41.908Z,1015.87
2024-05-09T02:43:41.881Z,1015.86
2024-05-09T02:44:41.887Z,1015.86
2024-05-09T02:46:02.841Z,1015.90
2024-05-09T02:46:41.817Z,1015.88
2024-05-09T02:47:41.884Z,1015.87
2024-05-09T02:48:41.837Z,1015.88
2024-05-09T02:49:41.731Z,1015.89
2024-05-09T02:50:42.110Z,1015.86
2024-05-09T02:52:02.706Z,1015.88
2024-05-09T02:52:41.697Z,1015.88
2024-05-09T02:53:41.675Z,1015.91
2024-05-09T02:54:41.655Z,1015.90
2024-05-09T02:55:41.921Z,1015.86
2024-05-09T02:56:41.670Z,1015.88
2024-05-09T02:58:02.607Z,1015.86
2024-05-09T02:58:41.536Z,1015.86
2024-05-09T02:59:41.524Z,1015.86
2024-05-09T03:00:42.841Z,1015.85
2024-05-09T03:01:41.607Z,1015.88
2024-05-09T03:02:41.603Z,1015.91
2024-05-09T03:04:02.603Z,1015.80
2024-05-09T03:04:41.436Z,1015.85
2024-05-09T03:05:41.701Z,1015.82
2024-05-09T03:06:42.280Z,1015.85
2024-05-09T03:07:41.338Z,1015.82
2024-05-09T03:08:41.380Z,1015.81
2024-05-09T03:10:02.277Z,1015.85
2024-05-09T03:10:41.306Z,1015.85
2024-05-09T03:11:41.400Z,1015.87
2024-05-09T03:12:41.269Z,1015.83
2024-05-09T03:13:41.793Z,1015.87
2024-05-09T03:14:41.191Z,1015.83
2024-05-09T03:16:02.163Z,1015.87
2024-05-09T03:16:41.136Z,1015.86
2024-05-09T03:17:41.420Z,1015.83
2024-05-09T03:18:41.233Z,1015.76
2024-05-09T03:19:41.063Z,1015.81
2024-05-09T03:20:41.806Z,1015.78
2024-05-09T03:22:02.011Z,1015.75
2024-05-09T03:22:41.017Z,1015.76
2024-05-09T03:23:41.105Z,1015.74
2024-05-09T03:24:40.975Z,1015.72
2024-05-09T03:25:40.996Z,1015.64
2024-05-09T03:26:40.994Z,1015.71
2024-05-09T03:28:01.898Z,1015.70
2024-05-09T03:28:40.859Z,1015.64
2024-05-09T03:29:41.796Z,1015.65
2024-05-09T03:30:42.979Z,1015.68
2024-05-09T03:31:40.861Z,1015.63
2024-05-09T03:32:40.947Z,1015.62
2024-05-09T03:34:02.462Z,1015.63
2024-05-09T03:34:40.733Z,1015.59
2024-05-09T03:35:40.836Z,1015.59
2024-05-09T03:36:40.697Z,1015.61
2024-05-09T03:37:40.656Z,1015.61
2024-05-09T03:38:40.691Z,1015.59
2024-05-09T03:40:01.634Z,1015.56
2024-05-09T03:40:40.598Z,1015.57
2024-05-09T03:41:40.616Z,1015.56
2024-05-09T03:42:40.586Z,1015.53
2024-05-09T03:43:41.288Z,1015.53
2024-05-09T03:44:40.596Z,1015.50
2024-05-09T03:46:01.489Z,1015.53
2024-05-09T03:46:40.469Z,1015.51
2024-05-09T03:47:40.722Z,1015.49
2024-05-09T03:48:40.564Z,1015.44
2024-05-09T03:49:40.658Z,1015.45
2024-05-09T03:50:40.559Z,1015.45
2024-05-09T03:52:01.384Z,1015.43
2024-05-09T03:52:41.291Z,1015.44
2024-05-09T03:53:40.451Z,1015.42
2024-05-09T03:54:40.303Z,1015.42
2024-05-09T03:55:40.259Z,1015.39
2024-05-09T03:56:40.446Z,1015.35
2024-05-09T03:58:01.217Z,1015.34
2024-05-09T03:58:40.189Z,1015.37
2024-05-09T03:59:40.239Z,1015.38
2024-05-09T04:00:40.552Z,1015.34
2024-05-09T04:01:40.238Z,1015.37
2024-05-09T04:02:40.153Z,1015.35
2024-05-09T04:04:01.108Z,1015.35
2024-05-09T04:04:40.202Z,1015.32
2024-05-09T04:05:41.091Z,1015.35
2024-05-09T04:06:40.017Z,1015.35
2024-05-09T04:07:40.053Z,1015.33
2024-05-09T04:08:40.819Z,1015.31
2024-05-09T04:10:00.982Z,1015.34
2024-05-09T04:10:39.958Z,1015.31
2024-05-09T04:11:40.035Z,1015.33
2024-05-09T04:12:39.916Z,1015.30
2024-05-09T04:13:39.866Z,1015.28
2024-05-09T04:14:39.903Z,1015.32
2024-05-09T04:16:00.817Z,1015.30
2024-05-09T04:16:39.799Z,1015.28
2024-05-09T04:17:39.957Z,1015.24
2024-05-09T04:18:39.901Z,1015.24
2024-05-09T04:19:39.854Z,1015.17
2024-05-09T04:20:41.137Z,1015.22
2024-05-09T04:22:01.282Z,1015.17
2024-05-09T04:22:39.691Z,1015.20
2024-05-09T04:23:39.773Z,1015.18
2024-05-09T04:24:39.661Z,1015.15
2024-05-09T04:25:39.610Z,1015.16
2024-05-09T04:26:39.631Z,1015.09
2024-05-09T04:28:00.596Z,1015.12
2024-05-09T04:28:39.582Z,1015.07
2024-05-09T04:29:39.559Z,1015.06
2024-05-09T04:30:41.364Z,1015.08
2024-05-09T04:31:39.471Z,1015.00
2024-05-09T04:32:39.603Z,1015.04
2024-05-09T04:34:00.546Z,1015.04
2024-05-09T04:34:39.452Z,1015.04
2024-05-09T04:35:40.361Z,1015.05
2024-05-09T04:36:41.706Z,1015.03
2024-05-09T04:37:39.354Z,1015.01
2024-05-09T04:38:39.447Z,1015.04
2024-05-09T04:40:00.344Z,1015.03
2024-05-09T04:40:39.352Z,1015.03
2024-05-09T04:41:39.329Z,1015.03
2024-05-09T04:42:39.234Z,1015.03
2024-05-09T04:43:39.225Z,1015.05
2024-05-09T04:44:39.255Z,1015.07
2024-05-09T04:46:00.198Z,1015.04
2024-05-09T04:46:39.786Z,1015.06
2024-05-09T04:47:39.237Z,1015.06
2024-05-09T04:48:39.147Z,1015.08
2024-05-09T04:49:39.144Z,1015.08
2024-05-09T04:50:39.858Z,1015.09
2024-05-09T04:52:00.042Z,1015.08
2024-05-09T04:52:39.029Z,1015.05
2024-05-09T04:53:39.129Z,1015.06
2024-05-09T04:54:38.981Z,1015.11
2024-05-09T04:55:39.235Z,1015.11
2024-05-09T04:56:38.992Z,1015.09
2024-05-09T04:57:59.950Z,1015.06
2024-05-09T04:58:38.911Z,1015.09
2024-05-09T04:59:38.952Z,1015.11
2024-05-09T05:00:40.155Z,1015.12
2024-05-09T05:01:38.862Z,1015.09
2024-05-09T05:02:38.901Z,1015.09
2024-05-09T05:04:00.013Z,1015.06
2024-05-09T05:04:38.831Z,1015.10
2024-05-09T05:05:38.880Z,1015.07
2024-05-09T05:06:38.742Z,1015.07
2024-05-09T05:07:38.721Z,1015.06
2024-05-09T05:08:39.440Z,1015.06
2024-05-09T05:09:59.678Z,1015.07
2024-05-09T05:10:38.684Z,1015.05
2024-05-09T05:11:38.692Z,1015.04
2024-05-09T05:12:38.618Z,1015.03
2024-05-09T05:13:41.458Z,1015.05
2024-05-09T05:14:38.631Z,1015.05
2024-05-09T05:15:59.536Z,1015.01
2024-05-09T05:16:38.554Z,1015.04
2024-05-09T05:17:38.771Z,1015.04
2024-05-09T05:18:38.517Z,1015.02
2024-05-09T05:19:38.935Z,1015.01
2024-05-09T05:20:38.550Z,1015.01
2024-05-09T05:21:59.404Z,1015.00
2024-05-09T05:22:38.391Z,1015.00
2024-05-09T05:23:38.577Z,1014.96
2024-05-09T05:24:38.344Z,1014.94
2024-05-09T05:25:38.349Z,1014.97
2024-05-09T05:26:38.834Z,1014.97
2024-05-09T05:27:59.303Z,1014.97
2024-05-09T05:28:38.269Z,1014.97
2024-05-09T05:29:38.380Z,1014.96
2024-05-09T05:30:38.266Z,1014.94
2024-05-09T05:31:38.318Z,1014.91
2024-05-09T05:32:38.379Z,1014.95
2024-05-09T05:33:59.246Z,1014.94
2024-05-09T05:34:38.144Z,1014.95
2024-05-09T05:35:38.165Z,1014.94
2024-05-09T05:36:38.126Z,1014.92
2024-05-09T05:37:38.065Z,1014.93
2024-05-09T05:38:38.120Z,1014.95
2024-05-09T05:39:59.037Z,1014.90
2024-05-09T05:40:39.149Z,1014.93
2024-05-09T05:41:38.050Z,1014.91
2024-05-09T05:42:37.998Z,1014.91
2024-05-09T05:43:37.980Z,1014.92
2024-05-09T05:44:37.983Z,1014.91
2024-05-09T05:45:58.913Z,1014.91
2024-05-09T05:46:37.881Z,1014.90
2024-05-09T05:47:38.017Z,1014.89
2024-05-09T05:48:38.011Z,1014.86
2024-05-09T05:49:38.125Z,1014.90
2024-05-09T05:50:38.726Z,1014.88
2024-05-09T05:51:58.790Z,1014.84
2024-05-09T05:52:37.774Z,1014.86
2024-05-09T05:53:37.859Z,1014.84
2024-05-09T05:54:37.730Z,1014.83
2024-05-09T05:55:37.812Z,1014.81
2024-05-09T05:56:37.736Z,1014.84
2024-05-09T05:57:58.677Z,1014.81
2024-05-09T05:58:37.635Z,1014.81
2024-05-09T05:59:37.622Z,1014.81
2024-05-09T06:00:39.735Z,1014.81
2024-05-09T06:01:37.639Z,1014.78
2024-05-09T06:02:37.703Z,1014.74
2024-05-09T06:03:58.704Z,1014.77
2024-05-09T06:04:37.560Z,1014.80
2024-05-09T06:05:37.685Z,1014.78
2024-05-09T06:06:37.496Z,1014.76
2024-05-09T06:07:37.455Z,1014.78
2024-05-09T06:08:37.470Z,1014.74
2024-05-09T06:09:58.412Z,1014.82
2024-05-09T06:10:39.986Z,1014.82
2024-05-09T06:11:37.491Z,1014.80
2024-05-09T06:12:37.370Z,1014.79
2024-05-09T06:13:37.334Z,1014.71
2024-05-09T06:14:37.322Z,1014.74
2024-05-09T06:15:58.290Z,1014.74
2024-05-09T06:16:37.290Z,1014.73
2024-05-09T06:17:37.417Z,1014.72
2024-05-09T06:18:37.418Z,1014.69
2024-05-09T06:19:37.307Z,1014.69
2024-05-09T06:20:38.395Z,1014.68
2024-05-09T06:21:58.171Z,1014.72
2024-05-09T06:22:37.143Z,1014.65
2024-05-09T06:23:37.208Z,1014.67
2024-05-09T06:24:37.138Z,1014.62
2024-05-09T06:25:37.142Z,1014.61
2024-05-09T06:26:37.116Z,1014.60
2024-05-09T06:27:58.067Z,1014.58
2024-05-09T06:28:37.043Z,1014.56
2024-05-09T06:29:37.043Z,1014.55
2024-05-09T06:30:39.935Z,1014.59
2024-05-09T06:31:36.954Z,1014.58
2024-05-09T06:32:38.008Z,1014.59
2024-05-09T06:33:58.087Z,1014.56
2024-05-09T06:34:36.970Z,1014.57
2024-05-09T06:35:37.179Z,1014.55
2024-05-09T06:36:36.864Z,1014.53
2024-05-09T06:37:36.835Z,1014.54
2024-05-09T06:38:36.961Z,1014.54
2024-05-09T06:39:57.869Z,1014.57
2024-05-09T06:40:39.253Z,1014.50
2024-05-09T06:41:36.860Z,1014.50
2024-05-09T06:42:36.736Z,1014.46
2024-05-09T06:43:36.704Z,1014.45
2024-05-09T06:44:36.747Z,1014.48
2024-05-09T06:45:57.679Z,1014.45
2024-05-09T06:46:36.671Z,1014.47
2024-05-09T06:47:37.513Z,1014.49
2024-05-09T06:48:36.763Z,1014.45
2024-05-09T06:49:36.633Z,1014.44
2024-05-09T06:50:38.340Z,1014.40
2024-05-09T06:51:57.557Z,1014.38
2024-05-09T06:52:36.520Z,1014.41
2024-05-09T06:53:37.446Z,1014.41
2024-05-09T06:54:36.498Z,1014.38
2024-05-09T06:55:36.570Z,1014.37
2024-05-09T06:56:36.493Z,1014.36
2024-05-09T06:57:57.436Z,1014.32
2024-05-09T06:58:36.397Z,1014.34
2024-05-09T06:59:36.542Z,1014.32
2024-05-09T07:00:39.670Z,1014.26
2024-05-09T07:01:36.392Z,1014.31
2024-05-09T07:02:36.394Z,1014.24
2024-05-09T07:03:57.420Z,1014.25
2024-05-09T07:04:36.361Z,1014.25
2024-05-09T07:05:36.320Z,1014.24
2024-05-09T07:06:36.256Z,1014.25
2024-05-09T07:07:36.250Z,1014.25
2024-05-09T07:08:36.296Z,1014.24
2024-05-09T07:09:57.203Z,1014.24
2024-05-09T07:10:37.021Z,1014.18
2024-05-09T07:11:36.187Z,1014.16
2024-05-09T07:12:36.852Z,1014.17
2024-05-09T07:13:36.104Z,1014.13
2024-05-09T07:14:37.997Z,1014.13
2024-05-09T07:15:57.055Z,1014.10
2024-05-09T07:16:36.071Z,1014.07
2024-05-09T07:17:36.193Z,1014.06
2024-05-09T07:18:36.250Z,1014.05
2024-05-09T07:19:36.115Z,1014.01
2024-05-09T07:20:36.001Z,1014.06
2024-05-09T07:21:56.939Z,1014.06
2024-05-09T07:22:35.954Z,1014.03
2024-05-09T07:23:36.039Z,1014.04
2024-05-09T07:24:35.884Z,1014.00
2024-05-09T07:25:35.862Z,1013.98
2024-05-09T07:26:36.023Z,1013.95
2024-05-09T07:27:56.855Z,1013.91
2024-05-09T07:28:35.796Z,1013.87
2024-05-09T07:29:38.537Z,1013.84
2024-05-09T07:30:35.773Z,1013.88
2024-05-09T07:31:35.770Z,1013.87
2024-05-09T07:32:35.859Z,1013.83
2024-05-09T07:33:56.764Z,1013.80
2024-05-09T07:34:35.872Z,1013.80
2024-05-09T07:35:35.962Z,1013.79
2024-05-09T07:36:35.659Z,1013.79
2024-05-09T07:37:35.647Z,1013.76
2024-05-09T07:38:35.669Z,1013.80
2024-05-09T07:39:56.594Z,1013.83
2024-05-09T07:40:36.903Z,1013.82
2024-05-09T07:41:35.586Z,1013.78
2024-05-09T07:42:35.528Z,1013.78
2024-05-09T07:43:35.529Z,1013.75
2024-05-09T07:44:35.713Z,1013.72
2024-05-09T07:45:58.395Z,1013.73
2024-05-09T07:48:57.644Z,1013.71
2024-05-09T07:50:34.428Z,1013.68
2024-05-09T07:52:24.021Z,1013.64
2024-05-09T07:53:21.830Z,1013.65
2024-05-09T07:53:33.232Z,1013.63
2024-05-09T07:53:42.681Z,1013.60
2024-05-09T07:54:35.423Z,1013.57
2024-05-09T07:55:35.413Z,1013.55
2024-05-09T07:56:35.451Z,1013.57
2024-05-09T07:57:56.277Z,1013.56
2024-05-09T07:58:35.232Z,1013.58
2024-05-09T07:59:37.623Z,1013.55
2024-05-09T08:00:35.209Z,1013.59
2024-05-09T08:01:35.293Z,1013.55
2024-05-09T08:02:35.231Z,1013.56
2024-05-09T08:03:56.347Z,1013.55
2024-05-09T08:04:35.188Z,1013.50
2024-05-09T08:05:35.149Z,1013.49
2024-05-09T08:06:35.118Z,1013.46
2024-05-09T08:07:35.074Z,1013.53
2024-05-09T08:08:35.027Z,1013.49
2024-05-09T08:09:56.078Z,1013.50
2024-05-09T08:10:35.007Z,1013.48
2024-05-09T08:11:35.028Z,1013.46
2024-05-09T08:12:34.974Z,1013.41
2024-05-09T08:13:34.923Z,1013.42
2024-05-09T08:14:34.911Z,1013.38
2024-05-09T08:15:56.051Z,1013.35
2024-05-09T08:16:34.928Z,1013.32
2024-05-09T08:17:34.887Z,1013.36
2024-05-09T08:18:35.181Z,1013.30
2024-05-09T08:19:34.833Z,1013.34
2024-05-09T08:20:35.491Z,1013.33
2024-05-09T08:21:55.883Z,1013.32
2024-05-09T08:22:34.767Z,1013.30
2024-05-09T08:23:34.728Z,1013.28
2024-05-09T08:24:34.770Z,1013.25
2024-05-09T08:25:34.681Z,1013.24
2024-05-09T08:26:34.699Z,1013.26
2024-05-09T08:27:55.812Z,1013.21
2024-05-09T08:28:34.656Z,1013.22
2024-05-09T08:29:34.613Z,1013.18
2024-05-09T08:30:37.263Z,1013.22
2024-05-09T08:31:34.630Z,1013.15
2024-05-09T08:32:34.682Z,1013.16
2024-05-09T08:33:55.711Z,1013.15
2024-05-09T08:34:34.630Z,1013.13
2024-05-09T08:35:34.674Z,1013.12
2024-05-09T08:36:34.527Z,1013.17
2024-05-09T08:37:38.723Z,1013.11
2024-05-09T08:38:34.462Z,1013.11
2024-05-09T08:39:55.622Z,1013.09
2024-05-09T08:40:36.420Z,1013.04
2024-05-09T08:41:34.402Z,1013.04
2024-05-09T08:42:34.384Z,1013.09
2024-05-09T08:43:34.659Z,1013.04
2024-05-09T08:44:34.348Z,1013.06
2024-05-09T08:45:55.375Z,1013.07
2024-05-09T08:46:34.927Z,1013.08
2024-05-09T08:47:34.378Z,1013.05
2024-05-09T08:48:34.500Z,1013.06
2024-05-09T08:49:34.535Z,1013.03
2024-05-09T08:50:38.626Z,1013.04
2024-05-09T08:51:55.284Z,1013.06
2024-05-09T08:52:34.180Z,1013.08
2024-05-09T08:53:34.156Z,1013.05
2024-05-09T08:54:34.209Z,1012.99
2024-05-09T08:55:34.123Z,1012.96
2024-05-09T08:56:34.112Z,1012.91
2024-05-09T08:57:55.199Z,1012.92
2024-05-09T08:58:34.070Z,1012.86
2024-05-09T08:59:34.082Z,1012.85
2024-05-09T09:00:37.174Z,1012.79
2024-05-09T09:01:34.160Z,1012.78
2024-05-09T09:02:34.080Z,1012.83
2024-05-09T09:03:56.109Z,1012.79
2024-05-09T09:04:34.113Z,1012.76
2024-05-09T09:05:34.234Z,1012.76
2024-05-09T09:06:34.067Z,1012.75
2024-05-09T09:07:33.966Z,1012.71
2024-05-09T09:08:33.888Z,1012.71
2024-05-09T09:09:54.932Z,1012.67
2024-05-09T09:10:34.020Z,1012.68
2024-05-09T09:11:33.892Z,1012.63
2024-05-09T09:12:33.842Z,1012.66
2024-05-09T09:13:33.826Z,1012.66
2024-05-09T09:14:33.783Z,1012.65
2024-05-09T09:15:54.874Z,1012.63
2024-05-09T09:16:33.824Z,1012.57
2024-05-09T09:17:33.883Z,1012.60
2024-05-09T09:18:33.905Z,1012.59
2024-05-09T09:19:33.830Z,1012.59
2024-05-09T09:20:36.609Z,1012.58
2024-05-09T09:21:54.851Z,1012.55
2024-05-09T09:22:33.673Z,1012.58
2024-05-09T09:23:33.682Z,1012.60
2024-05-09T09:24:33.698Z,1012.53
2024-05-09T09:25:33.633Z,1012.49
2024-05-09T09:26:33.601Z,1012.50
2024-05-09T09:27:54.811Z,1012.46
2024-05-09T09:28:33.562Z,1012.43
2024-05-09T09:29:33.575Z,1012.39
2024-05-09T09:30:37.324Z,1012.42
2024-05-09T09:31:33.618Z,1012.34
2024-05-09T09:32:33.622Z,1012.32
2024-05-09T09:33:54.718Z,1012.35
2024-05-09T09:34:33.570Z,1012.38
2024-05-09T09:35:33.456Z,1012.29
2024-05-09T09:36:33.530Z,1012.27
2024-05-09T09:37:33.431Z,1012.29
2024-05-09T09:38:33.938Z,1012.23
2024-05-09T09:39:54.460Z,1012.27
2024-05-09T09:40:35.886Z,1012.21
2024-05-09T09:41:33.340Z,1012.19
2024-05-09T09:42:33.387Z,1012.18
2024-05-09T09:43:33.323Z,1012.16
2024-05-09T09:44:34.208Z,1012.14
2024-05-09T09:45:54.317Z,1012.09
2024-05-09T09:46:33.340Z,1012.11
2024-05-09T09:47:33.347Z,1012.09
2024-05-09T09:48:33.425Z,1012.07
2024-05-09T09:49:33.351Z,1012.04
2024-05-09T09:50:34.951Z,1012.00
2024-05-09T09:51:54.224Z,1012.06
2024-05-09T09:52:33.181Z,1012.07
2024-05-09T09:53:33.162Z,1012.07
2024-05-09T09:54:33.226Z,1012.06
2024-05-09T09:55:33.132Z,1011.99
2024-05-09T09:56:33.097Z,1012.00
2024-05-09T09:57:54.175Z,1011.98
2024-05-09T09:58:33.130Z,1011.97
2024-05-09T09:59:33.078Z,1011.95
2024-05-09T10:00:34.017Z,1011.88
2024-05-09T10:01:33.118Z,1011.89
2024-05-09T10:02:33.103Z,1011.87
2024-05-09T10:03:54.223Z,1011.80
2024-05-09T10:04:33.113Z,1011.79
2024-05-09T10:05:33.169Z,1011.82
2024-05-09T10:06:32.965Z,1011.80
2024-05-09T10:07:32.949Z,1011.80
2024-05-09T10:08:32.989Z,1011.83
2024-05-09T10:09:53.973Z,1011.79
2024-05-09T10:10:33.396Z,1011.82
2024-05-09T10:11:37.058Z,1011.83
2024-05-09T10:12:32.954Z,1011.77
2024-05-09T10:13:33.003Z,1011.73
2024-05-09T10:14:33.470Z,1011.73
2024-05-09T10:15:54.260Z,1011.68
2024-05-09T10:16:32.853Z,1011.63
2024-05-09T10:17:32.966Z,1011.63
2024-05-09T10:18:34.263Z,1011.56
2024-05-09T10:19:32.907Z,1011.55
2024-05-09T10:20:33.110Z,1011.54
2024-05-09T10:21:53.747Z,1011.52
2024-05-09T10:22:32.692Z,1011.51
2024-05-09T10:23:33.491Z,1011.51
2024-05-09T10:24:32.680Z,1011.53
2024-05-09T10:25:32.736Z,1011.51
2024-05-09T10:26:32.644Z,1011.49
2024-05-09T10:27:53.692Z,1011.48
2024-05-09T10:28:32.733Z,1011.48
2024-05-09T10:29:32.601Z,1011.49
2024-05-09T10:30:36.004Z,1011.43
2024-05-09T10:31:32.633Z,1011.40
2024-05-09T10:32:32.740Z,1011.40
2024-05-09T10:33:53.791Z,1011.41
2024-05-09T10:34:32.648Z,1011.37
2024-05-09T10:35:32.472Z,1011.35
2024-05-09T10:36:32.524Z,1011.36
2024-05-09T10:37:32.597Z,1011.34
2024-05-09T10:38:32.948Z,1011.32
2024-05-09T10:39:53.441Z,1011.32
2024-05-09T10:40:32.565Z,1011.28
2024-05-09T10:41:32.961Z,1011.24
2024-05-09T10:42:32.396Z,1011.20
2024-05-09T10:43:32.373Z,1011.18
2024-05-09T10:44:32.329Z,1011.17
2024-05-09T10:45:53.463Z,1011.14
2024-05-09T10:46:32.325Z,1011.14
2024-05-09T10:47:32.349Z,1011.18
2024-05-09T10:48:32.448Z,1011.16
2024-05-09T10:49:32.340Z,1011.19
2024-05-09T10:50:34.378Z,1011.16
2024-05-09T10:51:53.411Z,1011.15
2024-05-09T10:52:32.225Z,1011.09
2024-05-09T10:53:32.221Z,1011.11
2024-05-09T10:54:32.204Z,1011.07
2024-05-09T10:55:32.201Z,1011.07
2024-05-09T10:56:32.167Z,1011.08
2024-05-09T10:57:53.208Z,1011.07
2024-05-09T10:58:32.116Z,1011.07
2024-05-09T10:59:32.118Z,1011.06
2024-05-09T11:00:35.876Z,1011.04
2024-05-09T11:01:32.300Z,1011.02
2024-05-09T11:02:32.274Z,1010.98
2024-05-09T11:03:53.270Z,1010.93
2024-05-09T11:04:32.057Z,1010.94
2024-05-09T11:05:32.093Z,1010.98
2024-05-09T11:06:32.002Z,1010.95
2024-05-09T11:07:31.997Z,1010.96
2024-05-09T11:08:32.006Z,1010.91
2024-05-09T11:09:52.946Z,1010.94
2024-05-09T11:10:34.219Z,1010.87
2024-05-09T11:11:31.998Z,1010.91
2024-05-09T11:12:32.897Z,1010.85
2024-05-09T11:13:32.154Z,1010.84
2024-05-09T11:14:31.914Z,1010.83
2024-05-09T11:15:52.905Z,1010.85
2024-05-09T11:16:31.860Z,1010.78
2024-05-09T11:17:31.932Z,1010.73
2024-05-09T11:18:35.476Z,1010.71
2024-05-09T11:19:31.827Z,1010.71
2024-05-09T11:20:34.748Z,1010.72
2024-05-09T11:21:52.798Z,1010.73
2024-05-09T11:22:31.788Z,1010.68
2024-05-09T11:23:31.747Z,1010.69
2024-05-09T11:24:31.761Z,1010.67
2024-05-09T11:25:31.680Z,1010.57
2024-05-09T11:26:31.740Z,1010.58
2024-05-09T11:27:52.672Z,1010.58
2024-05-09T11:28:31.665Z,1010.53
2024-05-09T11:29:31.679Z,1010.56
2024-05-09T11:30:32.378Z,1010.55
2024-05-09T11:31:31.795Z,1010.56
2024-05-09T11:32:31.703Z,1010.54
2024-05-09T11:33:52.669Z,1010.55
2024-05-09T11:34:31.640Z,1010.52
2024-05-09T11:35:31.541Z,1010.55
2024-05-09T11:36:31.527Z,1010.52
2024-05-09T11:37:34.031Z,1010.48
2024-05-09T11:38:31.457Z,1010.49
2024-05-09T11:39:52.515Z,1010.43
2024-05-09T11:40:34.333Z,1010.40
2024-05-09T11:41:31.414Z,1010.39
2024-05-09T11:42:31.507Z,1010.38
2024-05-09T11:43:31.436Z,1010.33
2024-05-09T11:44:31.401Z,1010.29
2024-05-09T11:45:52.363Z,1010.32
2024-05-09T11:46:31.412Z,1010.29
2024-05-09T11:47:31.453Z,1010.23
2024-05-09T11:48:32.403Z,1010.21
2024-05-09T11:49:31.411Z,1010.18
2024-05-09T11:50:35.345Z,1010.17
2024-05-09T11:51:52.292Z,1010.14
2024-05-09T11:52:31.287Z,1010.11
2024-05-09T11:53:31.240Z,1010.13
2024-05-09T11:54:32.076Z,1010.16
2024-05-09T11:55:31.232Z,1010.13
2024-05-09T11:56:31.184Z,1010.15
2024-05-09T11:57:52.231Z,1010.12
2024-05-09T11:58:31.131Z,1010.12
2024-05-09T11:59:31.139Z,1010.07
2024-05-09T12:00:36.651Z,1010.04
2024-05-09T12:01:31.257Z,1010.03
2024-05-09T12:02:31.098Z,1010.02
2024-05-09T12:03:52.419Z,1010.01
2024-05-09T12:04:31.202Z,1010.02
2024-05-09T12:05:31.161Z,1010.01
2024-05-09T12:06:31.102Z,1010.03
2024-05-09T12:07:31.054Z,1009.99
2024-05-09T12:08:30.975Z,1010.05